Time;durP1;ratioP1;P1;durP2;ratioP2;P2;SDS_P1;SDS_P2;PMS_P1;PMS_P2;Temp;Humidity;BMP_temperature;BMP_pressure;BME280_temperature;BME280_humidity;BME280_pressure;Samples;Min_cycle;Max_cycle;Signal;HPM_P1;HPM_P2
2022/01/07 00:00:42;;;;;;;1.73;0.60;;;;;;;;;;5056021;28;20025;-63
2022/01/07 00:03:08;;;;;;;1.50;0.60;;;;;;;;;;5055834;28;20250;-63
2022/01/07 00:05:33;;;;;;;0.63;0.50;;;;;;;;;;5054140;28;20052;-64
2022/01/07 00:07:58;;;;;;;0.98;0.70;;;;;;;;;;5055894;28;20025;-64
2022/01/07 00:10:23;;;;;;;0.67;0.43;;;;;;;;;;5055767;28;20021;-64
2022/01/07 00:12:49;;;;;;;0.47;0.40;;;;;;;;;;5055571;28;20029;-64
2022/01/07 00:15:16;;;;;;;0.90;0.45;;;;;;;;;;5055594;28;20029;-63
2022/01/07 00:17:41;;;;;;;0.50;0.40;;;;;;;;;;5055474;28;20112;-64
2022/01/07 00:20:10;;;;;;;0.73;0.50;;;;;;;;;;5055467;28;20100;-64
2022/01/07 00:22:36;;;;;;;0.40;0.40;;;;;;;;;;5055527;28;20258;-64
2022/01/07 00:25:02;;;;;;;0.52;0.40;;;;;;;;;;5055207;28;20104;-64
2022/01/07 00:27:27;;;;;;;0.47;0.32;;;;;;;;;;5055308;28;20448;-65
2022/01/07 00:29:53;;;;;;;0.37;0.30;;;;;;;;;;5055243;28;20409;-64
2022/01/07 00:32:18;;;;;;;0.60;0.38;;;;;;;;;;5055243;28;20327;-64
2022/01/07 00:34:43;;;;;;;0.67;0.50;;;;;;;;;;5054023;28;20108;-64
2022/01/07 00:37:08;;;;;;;0.93;0.50;;;;;;;;;;5055139;28;20295;-64
2022/01/07 00:39:33;;;;;;;0.97;0.83;;;;;;;;;;5055063;28;20713;-63
2022/01/07 00:41:58;;;;;;;0.80;0.73;;;;;;;;;;5055095;28;20269;-64
2022/01/07 00:44:24;;;;;;;0.60;0.40;;;;;;;;;;5055441;28;20582;-64
2022/01/07 00:46:49;;;;;;;0.33;0.33;;;;;;;;;;5053723;28;20111;-64
2022/01/07 00:49:20;;;;;;;0.40;0.40;;;;;;;;;;5054992;28;20720;-63
2022/01/07 00:51:46;;;;;;;1.27;0.52;;;;;;;;;;5054786;28;20337;-64
2022/01/07 00:54:11;;;;;;;0.70;0.50;;;;;;;;;;5054880;28;20104;-63
2022/01/07 00:56:36;;;;;;;1.13;0.60;;;;;;;;;;5054912;28;20020;-63
2022/01/07 00:59:01;;;;;;;0.60;0.38;;;;;;;;;;5053657;28;20036;-64
2022/01/07 01:01:26;;;;;;;0.95;0.47;;;;;;;;;;5053393;28;20029;-65
2022/01/07 01:03:51;;;;;;;0.67;0.50;;;;;;;;;;5054652;28;20025;-64
2022/01/07 01:06:17;;;;;;;0.85;0.45;;;;;;;;;;5054493;28;20361;-65
2022/01/07 01:08:42;;;;;;;1.10;0.30;;;;;;;;;;5054707;28;20036;-64
2022/01/07 01:11:07;;;;;;;0.32;0.32;;;;;;;;;;5054351;28;20342;-64
2022/01/07 01:13:32;;;;;;;0.82;0.50;;;;;;;;;;5054458;28;20025;-64
2022/01/07 01:15:58;;;;;;;0.30;0.30;;;;;;;;;;5054356;28;20456;-65
2022/01/07 01:18:23;;;;;;;1.60;0.30;;;;;;;;;;5054473;28;20032;-64
2022/01/07 01:20:48;;;;;;;1.33;0.40;;;;;;;;;;5054434;28;20100;-64
2022/01/07 01:23:13;;;;;;;0.83;0.60;;;;;;;;;;5054273;28;20476;-64
2022/01/07 01:25:39;;;;;;;1.15;0.80;;;;;;;;;;5053976;28;20656;-65
2022/01/07 01:28:04;;;;;;;0.55;0.30;;;;;;;;;;5054031;28;20025;-63
2022/01/07 01:30:32;;;;;;;0.85;0.60;;;;;;;;;;5054561;28;20103;-64
2022/01/07 01:32:57;;;;;;;1.33;0.50;;;;;;;;;;5053971;28;20029;-64
2022/01/07 01:35:23;;;;;;;1.13;0.70;;;;;;;;;;5054043;28;20384;-64
2022/01/07 01:37:48;;;;;;;0.80;0.50;;;;;;;;;;5054047;28;20033;-64
2022/01/07 01:40:14;;;;;;;0.55;0.40;;;;;;;;;;5053960;28;20652;-64
2022/01/07 01:42:39;;;;;;;0.52;0.50;;;;;;;;;;5054026;28;20028;-64
2022/01/07 01:45:05;;;;;;;1.10;0.53;;;;;;;;;;5053817;28;20025;-63
2022/01/07 01:47:30;;;;;;;2.03;0.70;;;;;;;;;;5053782;28;20261;-64
2022/01/07 01:49:55;;;;;;;0.77;0.70;;;;;;;;;;5053778;28;20021;-64
2022/01/07 01:52:21;;;;;;;0.70;0.37;;;;;;;;;;5053741;28;20025;-65
2022/01/07 01:54:46;;;;;;;0.75;0.45;;;;;;;;;;5053840;28;20281;-65
2022/01/07 01:57:11;;;;;;;0.73;0.50;;;;;;;;;;5053588;28;20025;-64
2022/01/07 01:59:36;;;;;;;0.55;0.47;;;;;;;;;;5053553;28;20033;-64
2022/01/07 02:02:01;;;;;;;1.08;0.63;;;;;;;;;;5053451;28;20060;-64
2022/01/07 02:04:28;;;;;;;0.98;0.65;;;;;;;;;;5052855;23;20077;-64
2022/01/07 02:06:54;;;;;;;0.95;0.65;;;;;;;;;;5033481;28;20100;-65
2022/01/07 02:09:24;;;;;;;0.30;0.30;;;;;;;;;;5033317;28;20406;-64
2022/01/07 02:11:49;;;;;;;1.10;0.55;;;;;;;;;;5033298;28;20049;-65
2022/01/07 02:14:15;;;;;;;1.45;0.60;;;;;;;;;;5033614;28;20292;-64
2022/01/07 02:16:40;;;;;;;1.15;0.70;;;;;;;;;;5033775;28;20018;-65
2022/01/07 02:19:05;;;;;;;0.43;0.43;;;;;;;;;;5033229;28;20056;-63
2022/01/07 02:21:35;;;;;;;0.95;0.70;;;;;;;;;;5033159;28;20330;-65
2022/01/07 02:24:02;;;;;;;0.93;0.80;;;;;;;;;;5032965;28;20038;-64
2022/01/07 02:26:27;;;;;;;1.15;0.60;;;;;;;;;;5033258;28;20049;-63
2022/01/07 02:28:52;;;;;;;0.73;0.50;;;;;;;;;;5033163;28;20487;-63
2022/01/07 02:31:18;;;;;;;0.80;0.52;;;;;;;;;;5033342;28;20104;-65
2022/01/07 02:33:44;;;;;;;2.03;0.80;;;;;;;;;;5033047;28;20483;-64
2022/01/07 02:36:09;;;;;;;0.43;0.43;;;;;;;;;;5033237;28;20026;-64
2022/01/07 02:38:34;;;;;;;0.73;0.40;;;;;;;;;;5033040;28;20287;-64
2022/01/07 02:41:00;;;;;;;0.55;0.47;;;;;;;;;;5032892;28;20025;-64
2022/01/07 02:43:25;;;;;;;0.50;0.40;;;;;;;;;;5032912;28;20518;-64
2022/01/07 02:45:50;;;;;;;0.60;0.60;;;;;;;;;;5032777;28;20021;-64
2022/01/07 02:48:15;;;;;;;0.40;0.40;;;;;;;;;;5032831;28;20277;-64
2022/01/07 02:50:40;;;;;;;1.95;0.77;;;;;;;;;;5033262;28;20239;-64
2022/01/07 02:53:08;;;;;;;0.87;0.57;;;;;;;;;;5031255;28;20029;-64
2022/01/07 02:55:33;;;;;;;0.80;0.50;;;;;;;;;;5032637;28;20292;-64
2022/01/07 02:57:59;;;;;;;0.70;0.43;;;;;;;;;;5032551;28;20025;-65
2022/01/07 03:00:24;;;;;;;0.70;0.47;;;;;;;;;;5032728;28;20036;-64
2022/01/07 03:02:50;;;;;;;1.13;0.47;;;;;;;;;;5032609;28;20029;-65
2022/01/07 03:05:15;;;;;;;0.65;0.45;;;;;;;;;;5032434;28;20551;-64
2022/01/07 03:07:41;;;;;;;0.35;0.30;;;;;;;;;;5032510;28;20029;-64
2022/01/07 03:10:07;;;;;;;0.73;0.38;;;;;;;;;;5032354;28;20061;-64
2022/01/07 03:12:32;;;;;;;1.33;0.80;;;;;;;;;;5032479;28;20097;-64
2022/01/07 03:14:57;;;;;;;1.38;0.60;;;;;;;;;;5032325;28;20017;-64
2022/01/07 03:17:22;;;;;;;0.87;0.60;;;;;;;;;;5032484;28;20020;-65
2022/01/07 03:19:47;;;;;;;1.55;0.60;;;;;;;;;;5032239;28;20614;-64
2022/01/07 03:22:13;;;;;;;0.40;0.40;;;;;;;;;;5031867;28;20033;-64
2022/01/07 03:24:38;;;;;;;1.55;0.75;;;;;;;;;;5032343;28;20243;-64
2022/01/07 03:27:03;;;;;;;1.85;0.50;;;;;;;;;;5030953;28;20033;-65
2022/01/07 03:29:29;;;;;;;0.65;0.65;;;;;;;;;;5030981;28;20381;-64
2022/01/07 03:31:55;;;;;;;0.65;0.50;;;;;;;;;;5032137;28;20025;-65
2022/01/07 03:34:20;;;;;;;1.40;0.57;;;;;;;;;;5032283;28;20029;-65
2022/01/07 03:36:45;;;;;;;1.00;0.60;;;;;;;;;;5032204;28;20017;-65
2022/01/07 03:39:11;;;;;;;1.55;1.13;;;;;;;;;;5032251;28;20021;-65
2022/01/07 03:41:36;;;;;;;2.42;0.50;;;;;;;;;;5032040;28;20029;-65
2022/01/07 03:44:01;;;;;;;0.90;0.38;;;;;;;;;;5032104;28;20068;-65
2022/01/07 03:46:26;;;;;;;1.03;0.50;;;;;;;;;;5032187;28;20061;-65
2022/01/07 03:48:51;;;;;;;0.87;0.80;;;;;;;;;;5032131;28;20255;-65
2022/01/07 03:51:17;;;;;;;0.75;0.70;;;;;;;;;;5032012;28;20354;-64
2022/01/07 03:53:42;;;;;;;0.80;0.60;;;;;;;;;;5032003;28;20018;-65
2022/01/07 03:56:08;;;;;;;1.85;0.40;;;;;;;;;;5031955;28;20049;-65
2022/01/07 03:58:33;;;;;;;0.63;0.63;;;;;;;;;;5032047;28;20025;-65
2022/01/07 04:00:58;;;;;;;1.17;0.60;;;;;;;;;;5031978;28;20036;-65
2022/01/07 04:03:23;;;;;;;0.97;0.60;;;;;;;;;;5031897;28;20259;-64
2022/01/07 04:05:48;;;;;;;0.90;0.73;;;;;;;;;;5031833;28;20688;-65
2022/01/07 04:08:14;;;;;;;0.75;0.43;;;;;;;;;;5031884;28;20247;-65
2022/01/07 04:10:39;;;;;;;0.73;0.38;;;;;;;;;;5032001;28;20071;-65
2022/01/07 04:13:04;;;;;;;0.80;0.60;;;;;;;;;;5030454;28;20028;-66
2022/01/07 04:15:29;;;;;;;1.23;0.70;;;;;;;;;;5031841;28;20029;-65
2022/01/07 04:17:55;;;;;;;0.50;0.45;;;;;;;;;;5030733;28;20588;-65
2022/01/07 04:20:22;;;;;;;0.57;0.50;;;;;;;;;;5032224;28;20021;-65
2022/01/07 04:22:48;;;;;;;1.58;0.43;;;;;;;;;;5031816;28;20478;-65
2022/01/07 04:25:17;;;;;;;2.25;0.60;;;;;;;;;;5031743;28;20025;-65
2022/01/07 04:27:43;;;;;;;0.60;0.60;;;;;;;;;;5031816;28;20022;-65
2022/01/07 04:30:09;;;;;;;0.77;0.60;;;;;;;;;;5031613;28;20117;-64
2022/01/07 04:32:34;;;;;;;0.95;0.40;;;;;;;;;;5033558;28;20031;-65
2022/01/07 04:35:00;;;;;;;0.90;0.47;;;;;;;;;;5035214;28;20018;-65
2022/01/07 04:37:26;;;;;;;0.95;0.57;;;;;;;;;;5035340;28;20014;-64
2022/01/07 04:39:51;;;;;;;0.88;0.82;;;;;;;;;;5035221;28;20045;-64
2022/01/07 04:42:16;;;;;;;0.40;0.40;;;;;;;;;;5035213;28;20029;-65
2022/01/07 04:44:42;;;;;;;0.65;0.65;;;;;;;;;;5035317;28;20606;-65
2022/01/07 04:47:07;;;;;;;0.73;0.47;;;;;;;;;;5035097;28;20255;-65
2022/01/07 04:49:33;;;;;;;1.10;0.50;;;;;;;;;;5035037;28;20353;-65
2022/01/07 04:51:58;;;;;;;1.10;0.60;;;;;;;;;;5034860;28;20569;-65
2022/01/07 04:54:23;;;;;;;1.98;0.75;;;;;;;;;;5035105;28;20077;-65
2022/01/07 04:56:48;;;;;;;1.03;0.47;;;;;;;;;;5034911;28;20567;-65
2022/01/07 04:59:13;;;;;;;1.73;0.60;;;;;;;;;;5034873;28;20257;-65
2022/01/07 05:01:39;;;;;;;0.68;0.68;;;;;;;;;;5034775;28;20267;-65
2022/01/07 05:04:04;;;;;;;0.70;0.47;;;;;;;;;;5034501;28;20103;-65
2022/01/07 05:06:45;;;;;;;1.23;0.40;;;;;;;;;;5034826;28;20302;-65
2022/01/07 05:09:16;;;;;;;2.17;0.70;;;;;;;;;;5035197;28;20017;-65
2022/01/07 05:11:41;;;;;;;1.85;0.77;;;;;;;;;;5034547;28;20560;-66
2022/01/07 05:14:06;;;;;;;1.15;0.73;;;;;;;;;;5034517;28;20105;-65
2022/01/07 05:16:31;;;;;;;0.90;0.60;;;;;;;;;;5034677;28;20016;-65
2022/01/07 05:18:57;;;;;;;1.02;0.52;;;;;;;;;;5034516;28;20404;-65
2022/01/07 05:21:22;;;;;;;1.00;0.80;;;;;;;;;;5034429;28;20052;-65
2022/01/07 05:23:48;;;;;;;0.63;0.50;;;;;;;;;;5034333;28;20045;-65
2022/01/07 05:26:13;;;;;;;1.33;0.60;;;;;;;;;;5034373;28;20579;-65
2022/01/07 05:28:38;;;;;;;1.15;0.70;;;;;;;;;;5034744;28;20281;-65
2022/01/07 05:31:04;;;;;;;0.70;0.47;;;;;;;;;;5034253;28;20028;-65
2022/01/07 05:33:29;;;;;;;0.40;0.40;;;;;;;;;;5034336;28;20017;-65
2022/01/07 05:35:54;;;;;;;1.40;0.60;;;;;;;;;;5034114;28;20022;-65
2022/01/07 05:38:19;;;;;;;1.33;0.60;;;;;;;;;;5034168;28;20247;-65
2022/01/07 05:40:45;;;;;;;0.63;0.50;;;;;;;;;;5034236;28;20021;-64
2022/01/07 05:43:10;;;;;;;1.02;0.70;;;;;;;;;;5033686;28;20254;-65
2022/01/07 05:45:35;;;;;;;0.80;0.45;;;;;;;;;;5033666;28;20070;-65
2022/01/07 05:48:00;;;;;;;0.47;0.40;;;;;;;;;;5033939;28;20045;-64
2022/01/07 05:50:25;;;;;;;1.07;0.77;;;;;;;;;;5033995;28;20503;-65
2022/01/07 05:52:51;;;;;;;0.50;0.40;;;;;;;;;;5033795;28;20279;-65
2022/01/07 05:55:16;;;;;;;0.50;0.50;;;;;;;;;;5034147;28;20018;-65
2022/01/07 05:57:41;;;;;;;1.93;0.60;;;;;;;;;;5033707;28;20345;-65
2022/01/07 06:00:07;;;;;;;1.58;0.80;;;;;;;;;;5033644;28;20251;-65
2022/01/07 06:02:32;;;;;;;0.80;0.60;;;;;;;;;;5034070;28;20087;-65
2022/01/07 06:04:57;;;;;;;0.40;0.37;;;;;;;;;;5033291;28;20128;-65
2022/01/07 06:07:23;;;;;;;1.15;0.82;;;;;;;;;;5033575;28;20258;-65
2022/01/07 06:09:48;;;;;;;0.70;0.60;;;;;;;;;;5032163;28;20029;-65
2022/01/07 06:12:13;;;;;;;0.73;0.60;;;;;;;;;;5033755;28;20096;-65
2022/01/07 06:14:38;;;;;;;1.17;0.80;;;;;;;;;;5033802;28;20293;-65
2022/01/07 06:17:03;;;;;;;1.15;0.40;;;;;;;;;;5033330;28;20084;-65
2022/01/07 06:19:28;;;;;;;0.80;0.40;;;;;;;;;;5033411;28;20013;-65
2022/01/07 06:21:54;;;;;;;1.23;0.50;;;;;;;;;;5033214;28;20113;-65
2022/01/07 06:24:19;;;;;;;0.57;0.43;;;;;;;;;;5033243;28;20713;-65
2022/01/07 06:26:44;;;;;;;1.10;0.70;;;;;;;;;;5033357;28;20286;-64
2022/01/07 06:29:10;;;;;;;1.53;0.50;;;;;;;;;;5033116;28;20312;-65
2022/01/07 06:31:35;;;;;;;1.00;0.50;;;;;;;;;;5032966;28;20282;-65
2022/01/07 06:34:02;;;;;;;1.23;0.60;;;;;;;;;;5032991;28;20124;-66
2022/01/07 06:36:28;;;;;;;1.65;0.47;;;;;;;;;;5033134;28;20300;-65
2022/01/07 06:38:54;;;;;;;0.98;0.52;;;;;;;;;;5032963;28;20369;-65
2022/01/07 06:41:19;;;;;;;2.33;0.82;;;;;;;;;;5032977;28;20014;-65
2022/01/07 06:43:45;;;;;;;0.40;0.40;;;;;;;;;;5032880;28;20471;-65
2022/01/07 06:46:11;;;;;;;1.47;0.70;;;;;;;;;;5032803;28;20255;-65
2022/01/07 06:48:37;;;;;;;1.13;0.65;;;;;;;;;;5032917;28;20325;-66
2022/01/07 06:51:02;;;;;;;0.75;0.60;;;;;;;;;;5032741;28;20112;-65
2022/01/07 06:53:29;;;;;;;1.55;0.60;;;;;;;;;;5032652;28;20025;-65
2022/01/07 06:55:54;;;;;;;0.55;0.50;;;;;;;;;;5031939;28;20013;-65
2022/01/07 06:58:19;;;;;;;1.02;0.60;;;;;;;;;;5032018;28;20013;-66
2022/01/07 07:00:44;;;;;;;1.42;0.50;;;;;;;;;;5029857;28;20077;-65
2022/01/07 07:03:09;;;;;;;0.60;0.60;;;;;;;;;;5040314;28;20021;-65
2022/01/07 07:05:34;;;;;;;1.70;0.47;;;;;;;;;;5035748;28;20494;-65
2022/01/07 07:08:00;;;;;;;0.60;0.43;;;;;;;;;;5049349;28;20279;-66
2022/01/07 07:10:25;;;;;;;1.38;0.70;;;;;;;;;;5051184;28;20262;-65
2022/01/07 07:12:51;;;;;;;0.98;0.93;;;;;;;;;;5038770;28;20042;-65
2022/01/07 07:15:16;;;;;;;1.38;0.60;;;;;;;;;;5035969;28;20022;-65
2022/01/07 07:17:44;;;;;;;0.50;0.50;;;;;;;;;;5045757;28;20048;-65
2022/01/07 07:20:10;;;;;;;0.98;0.57;;;;;;;;;;5045658;28;20756;-65
2022/01/07 07:22:35;;;;;;;0.70;0.60;;;;;;;;;;5037537;28;20032;-65
2022/01/07 07:25:00;;;;;;;1.65;0.80;;;;;;;;;;5050546;28;20049;-66
2022/01/07 07:27:25;;;;;;;0.50;0.40;;;;;;;;;;5036133;28;20033;-65
2022/01/07 07:29:50;;;;;;;0.75;0.50;;;;;;;;;;5032536;28;20480;-65
2022/01/07 07:32:21;;;;;;;2.05;0.85;;;;;;;;;;5051361;28;20053;-65
2022/01/07 07:35:02;;;;;;;0.90;0.60;;;;;;;;;;5045274;28;20534;-65
2022/01/07 07:37:28;;;;;;;1.00;0.55;;;;;;;;;;5036419;28;20020;-66
2022/01/07 07:39:53;;;;;;;3.20;0.60;;;;;;;;;;5036770;28;20017;-66
2022/01/07 07:42:18;;;;;;;0.65;0.55;;;;;;;;;;5040527;28;20024;-65
2022/01/07 07:44:43;;;;;;;0.93;0.50;;;;;;;;;;5037718;28;20025;-65
2022/01/07 07:47:09;;;;;;;0.63;0.43;;;;;;;;;;5038356;28;20263;-65
2022/01/07 07:49:34;;;;;;;0.73;0.50;;;;;;;;;;5029654;28;20025;-65
2022/01/07 07:51:59;;;;;;;1.23;0.60;;;;;;;;;;5048718;28;20066;-66
2022/01/07 07:54:24;;;;;;;0.73;0.55;;;;;;;;;;5034050;28;20289;-66
2022/01/07 07:56:49;;;;;;;1.60;0.70;;;;;;;;;;5037674;28;20468;-65
2022/01/07 07:59:14;;;;;;;0.77;0.70;;;;;;;;;;5042694;28;20254;-66
2022/01/07 08:01:40;;;;;;;1.43;0.60;;;;;;;;;;5048140;28;20618;-65
2022/01/07 08:04:07;;;;;;;1.33;0.50;;;;;;;;;;5046302;28;20054;-65
2022/01/07 08:06:32;;;;;;;1.55;0.63;;;;;;;;;;5033172;28;20108;-65
2022/01/07 08:08:57;;;;;;;0.33;0.27;;;;;;;;;;5042969;28;20515;-65
2022/01/07 08:11:26;;;;;;;0.82;0.35;;;;;;;;;;5036870;28;20285;-66
2022/01/07 08:16:36;;;;;;;0.93;0.45;;;;;;;;;;5039076;28;20494;-64
2022/01/07 08:19:01;;;;;;;0.70;0.30;;;;;;;;;;5039779;28;20109;-64
2022/01/07 08:21:27;;;;;;;0.68;0.30;;;;;;;;;;5047985;28;20017;-65
2022/01/07 08:23:53;;;;;;;0.50;0.20;;;;;;;;;;5035246;28;20381;-65
2022/01/07 08:26:18;;;;;;;1.05;0.20;;;;;;;;;;5055026;28;20009;-65
2022/01/07 08:29:06;;;;;;;0.50;0.30;;;;;;;;;;5052284;28;20021;-64
2022/01/07 08:36:40;;;;;;;0.38;0.20;;;;;;;;;;5023112;28;20140;-64
2022/01/07 08:39:07;;;;;;;0.47;0.13;;;;;;;;;;5031359;28;20037;-65
2022/01/07 08:41:32;;;;;;;0.40;0.22;;;;;;;;;;5031211;28;20266;-65
2022/01/07 08:43:58;;;;;;;0.73;0.20;;;;;;;;;;5034068;28;20446;-64
2022/01/07 08:46:23;;;;;;;0.55;0.25;;;;;;;;;;5031758;28;20373;-65
2022/01/07 08:48:48;;;;;;;0.73;0.20;;;;;;;;;;5032975;28;20128;-64
2022/01/07 08:51:13;;;;;;;0.68;0.32;;;;;;;;;;5034645;28;20033;-65
2022/01/07 08:53:39;;;;;;;0.50;0.40;;;;;;;;;;5032159;28;20032;-65
2022/01/07 08:56:05;;;;;;;0.97;0.30;;;;;;;;;;5035366;28;20852;-65
2022/01/07 08:58:30;;;;;;;0.73;0.40;;;;;;;;;;5047362;28;20373;-66
2022/01/07 09:00:56;;;;;;;1.45;0.50;;;;;;;;;;5038916;28;20457;-66
2022/01/07 09:03:21;;;;;;;2.10;0.32;;;;;;;;;;5034537;28;20471;-65
2022/01/07 09:05:46;;;;;;;0.30;0.20;;;;;;;;;;5044323;28;20050;-66
2022/01/07 09:08:12;;;;;;;0.40;0.27;;;;;;;;;;5031527;28;20029;-66
2022/01/07 09:10:38;;;;;;;1.80;0.50;;;;;;;;;;5034412;28;20255;-66
2022/01/07 09:13:03;;;;;;;0.55;0.30;;;;;;;;;;5034828;28;20025;-66
2022/01/07 09:15:28;;;;;;;0.35;0.35;;;;;;;;;;5034575;28;20067;-66
2022/01/07 09:17:53;;;;;;;0.73;0.50;;;;;;;;;;5034195;28;20028;-66
2022/01/07 09:20:20;;;;;;;0.20;0.10;;;;;;;;;;5033930;28;20022;-66
2022/01/07 09:22:45;;;;;;;0.98;0.55;;;;;;;;;;5034474;28;20787;-66
2022/01/07 09:25:11;;;;;;;0.55;0.47;;;;;;;;;;5034523;28;20026;-66
2022/01/07 09:27:37;;;;;;;3.10;0.90;;;;;;;;;;5034312;28;20075;-66
2022/01/07 09:30:03;;;;;;;0.85;0.30;;;;;;;;;;5033426;28;20255;-66
2022/01/07 09:32:28;;;;;;;0.98;0.20;;;;;;;;;;5034289;28;20029;-66
2022/01/07 09:34:53;;;;;;;0.20;0.17;;;;;;;;;;5034222;28;20381;-66
2022/01/07 09:37:18;;;;;;;1.00;0.20;;;;;;;;;;5034208;28;20071;-66
2022/01/07 09:39:43;;;;;;;0.97;0.13;;;;;;;;;;5033163;28;20017;-65
2022/01/07 09:42:09;;;;;;;0.50;0.13;;;;;;;;;;5034039;28;20334;-65
2022/01/07 09:44:41;;;;;;;1.95;0.40;;;;;;;;;;5034131;28;20737;-66
2022/01/07 09:47:07;;;;;;;0.30;0.28;;;;;;;;;;5033889;28;20026;-66
2022/01/07 09:49:34;;;;;;;1.70;0.30;;;;;;;;;;5032547;28;20029;-66
2022/01/07 09:52:00;;;;;;;0.35;0.30;;;;;;;;;;5033858;28;20026;-66
2022/01/07 09:54:25;;;;;;;0.35;0.30;;;;;;;;;;5033955;28;20036;-66
2022/01/07 09:56:51;;;;;;;0.45;0.10;;;;;;;;;;5033842;28;20025;-66
2022/01/07 09:59:16;;;;;;;0.43;0.20;;;;;;;;;;5032739;28;20515;-66
2022/01/07 10:01:58;;;;;;;1.85;0.20;;;;;;;;;;5033708;28;20025;-66
2022/01/07 10:04:30;;;;;;;0.35;0.10;;;;;;;;;;5033378;28;20077;-66
2022/01/07 10:07:20;;;;;;;1.15;0.20;;;;;;;;;;5031116;28;20388;-66
2022/01/07 10:09:57;;;;;;;0.20;0.20;;;;;;;;;;5033549;28;20408;-65
2022/01/07 10:12:22;;;;;;;0.30;0.30;;;;;;;;;;5032265;28;20064;-65
2022/01/07 10:15:07;;;;;;;0.30;0.20;;;;;;;;;;5033571;28;20021;-66
2022/01/07 10:17:32;;;;;;;0.40;0.20;;;;;;;;;;5032051;28;20760;-66
2022/01/07 10:20:00;;;;;;;1.00;0.20;;;;;;;;;;5033310;28;20052;-65
2022/01/07 10:22:25;;;;;;;0.40;0.10;;;;;;;;;;5033406;28;20095;-65
2022/01/07 10:24:55;;;;;;;0.73;0.40;;;;;;;;;;5031961;28;20049;-66
2022/01/07 10:27:21;;;;;;;0.63;0.10;;;;;;;;;;5033328;28;20025;-66
2022/01/07 10:29:46;;;;;;;1.77;0.22;;;;;;;;;;5033623;28;20018;-66
2022/01/07 10:32:19;;;;;;;0.55;0.10;;;;;;;;;;5033030;28;20416;-66
2022/01/07 10:35:00;;;;;;;1.30;0.20;;;;;;;;;;5033229;28;20024;-66
2022/01/07 10:37:25;;;;;;;1.23;0.17;;;;;;;;;;5033049;28;20029;-66
2022/01/07 10:39:50;;;;;;;0.63;0.30;;;;;;;;;;5033021;28;20554;-66
2022/01/07 10:42:22;;;;;;;0.30;0.10;;;;;;;;;;5033003;28;20292;-66
2022/01/07 10:44:57;;;;;;;1.35;0.32;;;;;;;;;;5032974;28;20032;-65
2022/01/07 10:47:25;;;;;;;1.15;0.28;;;;;;;;;;5032824;28;20021;-65
2022/01/07 10:50:10;;;;;;;0.13;0.13;;;;;;;;;;5031479;28;20421;-66
2022/01/07 10:52:36;;;;;;;0.43;0.20;;;;;;;;;;5032605;28;20029;-66
2022/01/07 10:55:10;;;;;;;0.60;0.15;;;;;;;;;;5031333;28;20013;-66
2022/01/07 10:57:36;;;;;;;0.63;0.20;;;;;;;;;;5032579;28;20495;-66
2022/01/07 11:00:09;;;;;;;0.40;0.13;;;;;;;;;;5031279;28;20026;-65
2022/01/07 11:02:34;;;;;;;1.25;0.20;;;;;;;;;;5031512;28;20034;-66
2022/01/07 11:05:00;;;;;;;0.20;0.17;;;;;;;;;;5032309;28;20562;-66
2022/01/07 11:07:25;;;;;;;0.47;0.10;;;;;;;;;;5032544;28;20025;-66
2022/01/07 11:09:51;;;;;;;0.50;0.20;;;;;;;;;;5032833;28;20440;-66
2022/01/07 11:12:17;;;;;;;0.50;0.13;;;;;;;;;;5042360;28;20028;-67
2022/01/07 11:14:42;;;;;;;1.02;0.20;;;;;;;;;;5033228;28;20029;-66
2022/01/07 11:17:10;;;;;;;0.20;0.10;;;;;;;;;;5032344;28;20013;-66
2022/01/07 11:19:37;;;;;;;0.30;0.20;;;;;;;;;;5027106;28;20136;-65
2022/01/07 11:22:03;;;;;;;0.43;0.10;;;;;;;;;;5012553;28;20021;-65
2022/01/07 11:24:34;;;;;;;0.63;0.20;;;;;;;;;;5018374;28;20021;-66
2022/01/07 11:27:01;;;;;;;0.10;0.10;;;;;;;;;;5032227;28;20049;-66
2022/01/07 11:29:27;;;;;;;0.10;0.10;;;;;;;;;;5032287;28;20021;-65
2022/01/07 11:31:52;;;;;;;0.77;0.15;;;;;;;;;;5032066;28;20033;-65
2022/01/07 11:34:22;;;;;;;0.40;0.03;;;;;;;;;;5032526;28;20021;-66
2022/01/07 11:36:47;;;;;;;0.32;0.10;;;;;;;;;;5032286;28;20013;-66
2022/01/07 11:39:12;;;;;;;0.60;0.10;;;;;;;;;;5032226;28;20018;-66
2022/01/07 11:41:42;;;;;;;0.47;0.25;;;;;;;;;;5032573;28;20525;-66
2022/01/07 11:44:11;;;;;;;1.38;0.10;;;;;;;;;;5036247;28;20053;-65
2022/01/07 11:46:36;;;;;;;0.32;0.03;;;;;;;;;;5036270;28;20024;-65
2022/01/07 11:49:02;;;;;;;0.70;0.20;;;;;;;;;;5036182;28;20029;-66
2022/01/07 11:51:37;;;;;;;0.68;0.15;;;;;;;;;;5036190;28;20243;-65
2022/01/07 11:54:04;;;;;;;0.10;0.00;;;;;;;;;;5036055;28;20156;-65
2022/01/07 11:56:30;;;;;;;1.13;0.15;;;;;;;;;;5036199;28;20457;-66
2022/01/07 11:58:56;;;;;;;0.30;0.20;;;;;;;;;;5034429;28;20040;-65
2022/01/07 12:01:31;;;;;;;0.80;0.20;;;;;;;;;;5036011;28;20021;-65
2022/01/07 12:03:57;;;;;;;0.10;0.10;;;;;;;;;;5034365;28;20083;-65
2022/01/07 12:06:26;;;;;;;0.25;0.00;;;;;;;;;;5036009;28;20021;-65
2022/01/07 12:08:57;;;;;;;0.75;0.03;;;;;;;;;;5036085;28;20100;-66
2022/01/07 12:11:23;;;;;;;0.50;0.10;;;;;;;;;;5035746;28;20354;-65
2022/01/07 12:13:48;;;;;;;0.50;0.10;;;;;;;;;;5035737;28;20436;-65
2022/01/07 12:16:17;;;;;;;0.40;0.13;;;;;;;;;;5035755;28;20018;-65
2022/01/07 12:18:42;;;;;;;0.28;0.20;;;;;;;;;;5035841;28;20511;-65
2022/01/07 12:21:07;;;;;;;0.10;0.10;;;;;;;;;;5035570;28;20018;-66
2022/01/07 12:23:33;;;;;;;1.13;0.10;;;;;;;;;;5035514;28;20029;-66
2022/01/07 12:26:03;;;;;;;0.28;0.20;;;;;;;;;;5035406;28;20025;-65
2022/01/07 12:28:34;;;;;;;0.28;0.10;;;;;;;;;;5038802;28;20071;-65
2022/01/07 12:31:09;;;;;;;0.77;0.38;;;;;;;;;;5054202;28;20112;-65
2022/01/07 12:33:35;;;;;;;0.17;0.10;;;;;;;;;;5053270;28;20104;-67
2022/01/07 12:36:00;;;;;;;0.20;0.20;;;;;;;;;;5054005;28;20096;-66
2022/01/07 12:38:25;;;;;;;0.70;0.13;;;;;;;;;;5054893;28;20048;-67
2022/01/07 12:40:54;;;;;;;0.90;0.40;;;;;;;;;;5055056;28;20021;-65
2022/01/07 12:43:21;;;;;;;0.90;0.30;;;;;;;;;;5051475;28;20270;-65
2022/01/07 12:46:00;;;;;;;0.82;0.40;;;;;;;;;;5055064;28;20059;-65
2022/01/07 12:48:33;;;;;;;0.10;0.00;;;;;;;;;;5055146;28;20028;-66
2022/01/07 12:51:03;;;;;;;0.70;0.20;;;;;;;;;;5055026;28;20025;-66
2022/01/07 12:53:28;;;;;;;0.95;0.40;;;;;;;;;;5053533;28;20491;-65
2022/01/07 12:55:53;;;;;;;0.50;0.20;;;;;;;;;;5054800;28;20053;-66
2022/01/07 12:58:26;;;;;;;0.10;0.00;;;;;;;;;;5055169;28;20488;-65
2022/01/07 13:00:51;;;;;;;0.40;0.20;;;;;;;;;;5054678;28;20021;-65
2022/01/07 13:03:16;;;;;;;0.90;0.20;;;;;;;;;;5055062;28;20047;-66
2022/01/07 13:05:42;;;;;;;2.35;0.57;;;;;;;;;;5054693;28;20090;-65
2022/01/07 13:08:11;;;;;;;0.85;0.45;;;;;;;;;;5054556;28;20029;-65
2022/01/07 13:10:38;;;;;;;0.20;0.10;;;;;;;;;;5054624;28;20108;-65
2022/01/07 13:13:07;;;;;;;0.80;0.30;;;;;;;;;;5053053;28;20147;-65
2022/01/07 13:15:40;;;;;;;1.08;0.20;;;;;;;;;;5054495;28;20024;-65
2022/01/07 13:18:14;;;;;;;0.20;0.00;;;;;;;;;;5054419;28;20048;-65
2022/01/07 13:20:39;;;;;;;0.30;0.20;;;;;;;;;;5040623;28;20021;-66
2022/01/07 13:23:05;;;;;;;0.63;0.10;;;;;;;;;;5041120;28;20025;-66
2022/01/07 13:25:30;;;;;;;0.63;0.17;;;;;;;;;;5046455;28;20541;-65
2022/01/07 13:27:55;;;;;;;0.22;0.10;;;;;;;;;;5035198;28;20032;-66
2022/01/07 13:30:37;;;;;;;0.22;0.10;;;;;;;;;;5034357;28;20025;-65
2022/01/07 13:33:06;;;;;;;0.30;0.15;;;;;;;;;;5032734;28;20052;-66
2022/01/07 13:35:31;;;;;;;1.60;0.15;;;;;;;;;;5033215;28;20376;-66
2022/01/07 13:37:56;;;;;;;0.30;0.10;;;;;;;;;;5034186;28;20026;-66
2022/01/07 13:40:27;;;;;;;1.42;0.10;;;;;;;;;;5030776;28;20258;-65
2022/01/07 13:43:05;;;;;;;0.95;0.30;;;;;;;;;;5032559;28;20040;-65
2022/01/07 13:45:30;;;;;;;0.15;0.10;;;;;;;;;;5032698;28;20075;-66
2022/01/07 13:48:02;;;;;;;0.53;0.13;;;;;;;;;;5031438;28;20460;-65
2022/01/07 13:50:30;;;;;;;0.10;0.10;;;;;;;;;;5032597;28;20261;-66
2022/01/07 13:52:56;;;;;;;0.20;0.10;;;;;;;;;;5032165;28;20033;-66
2022/01/07 13:55:25;;;;;;;0.70;0.10;;;;;;;;;;5032737;28;20432;-67
2022/01/07 13:57:50;;;;;;;0.88;0.20;;;;;;;;;;5032297;28;20037;-67
2022/01/07 14:00:15;;;;;;;0.70;0.20;;;;;;;;;;5032431;28;20017;-66
2022/01/07 14:02:46;;;;;;;2.17;0.20;;;;;;;;;;5032437;28;20048;-66
2022/01/07 14:05:12;;;;;;;0.30;0.10;;;;;;;;;;5028319;28;20278;-65
2022/01/07 14:07:39;;;;;;;0.40;0.15;;;;;;;;;;5032297;28;20105;-65
2022/01/07 14:10:18;;;;;;;0.52;0.10;;;;;;;;;;5033417;28;20021;-65
2022/01/07 14:12:48;;;;;;;0.20;0.20;;;;;;;;;;5032819;28;20017;-62
2022/01/07 14:15:13;;;;;;;0.63;0.17;;;;;;;;;;5036861;28;20029;-63
2022/01/07 14:17:40;;;;;;;0.60;0.20;;;;;;;;;;5032288;28;20067;-65
2022/01/07 14:20:07;;;;;;;1.05;0.40;;;;;;;;;;5032085;28;20025;-64
2022/01/07 14:22:34;;;;;;;0.85;0.22;;;;;;;;;;5034503;28;20446;-68
2022/01/07 14:25:00;;;;;;;0.68;0.10;;;;;;;;;;5031228;28;20032;-66
2022/01/07 14:27:26;;;;;;;1.35;0.22;;;;;;;;;;5032722;28;20104;-65
2022/01/07 14:29:51;;;;;;;1.20;0.52;;;;;;;;;;5032144;28;20034;-64
2022/01/07 14:32:16;;;;;;;1.92;0.30;;;;;;;;;;5037496;28;20327;-67
2022/01/07 14:34:41;;;;;;;0.93;0.20;;;;;;;;;;5032388;28;20035;-66
2022/01/07 14:37:07;;;;;;;0.57;0.17;;;;;;;;;;5040866;28;20626;-65
2022/01/07 14:39:32;;;;;;;0.17;0.10;;;;;;;;;;5029524;28;20047;-65
2022/01/07 14:41:57;;;;;;;1.35;0.60;;;;;;;;;;5040718;28;20749;-66
2022/01/07 14:44:22;;;;;;;0.95;0.10;;;;;;;;;;5037909;28;20029;-65
2022/01/07 14:46:47;;;;;;;1.15;0.30;;;;;;;;;;5038343;28;20045;-66